createdAt,value
2023-10-20T00:00:30.509Z,139.47
2023-10-20T00:03:03.490Z,138.50
2023-10-20T00:05:35.778Z,143.80
2023-10-20T00:08:07.669Z,136.40
2023-10-20T00:10:40.662Z,186.57
2023-10-20T00:13:12.601Z,147.77
2023-10-20T00:15:47.299Z,143.40
2023-10-20T00:18:19.506Z,142.80
2023-10-20T00:20:51.383Z,143.77
2023-10-20T00:23:23.217Z,138.23
2023-10-20T00:25:55.118Z,138.27
2023-10-20T00:28:26.881Z,143.70
2023-10-20T00:30:58.664Z,136.13
2023-10-20T00:33:30.421Z,135.17
2023-10-20T00:36:02.163Z,138.33
2023-10-20T00:38:33.973Z,135.00
2023-10-20T00:41:05.862Z,136.37
2023-10-20T00:43:41.716Z,146.30
2023-10-20T00:46:13.673Z,138.97
2023-10-20T00:48:45.594Z,143.90
2023-10-20T00:51:18.690Z,144.83
2023-10-20T00:53:50.597Z,141.20
2023-10-20T00:56:24.047Z,150.00
2023-10-20T00:58:56.262Z,145.13
2023-10-20T01:01:28.132Z,146.43
2023-10-20T01:04:00.284Z,143.37
2023-10-20T01:06:32.985Z,148.93
2023-10-20T01:09:04.985Z,148.37
2023-10-20T01:11:38.486Z,150.40
2023-10-20T01:14:10.394Z,144.30
2023-10-20T01:16:42.189Z,153.27
2023-10-20T01:19:20.946Z,143.77
2023-10-20T01:21:52.699Z,144.80
2023-10-20T01:24:24.476Z,149.70
2023-10-20T01:26:56.604Z,143.87
2023-10-20T01:29:28.450Z,141.20
2023-10-20T01:32:00.328Z,147.60
2023-10-20T01:34:33.047Z,149.63
2023-10-20T01:37:05.344Z,158.07
2023-10-20T01:39:37.099Z,160.83
2023-10-20T01:42:09.521Z,156.03
2023-10-20T01:44:41.344Z,148.83
2023-10-20T01:47:13.097Z,150.10
2023-10-20T01:49:45.005Z,149.77
2023-10-20T01:52:17.578Z,151.80
2023-10-20T01:54:49.456Z,153.73
2023-10-20T01:57:21.263Z,143.97
2023-10-20T01:59:53.219Z,153.27
2023-10-20T02:02:25.051Z,150.47
2023-10-20T02:04:56.861Z,153.83
2023-10-20T02:07:29.672Z,152.50
2023-10-20T02:10:01.949Z,198.87
2023-10-20T02:12:34.849Z,151.57
2023-10-20T02:15:07.865Z,157.73
2023-10-20T02:17:40.273Z,160.33
2023-10-20T02:20:12.794Z,157.57
2023-10-20T02:22:44.733Z,157.90
2023-10-20T02:25:17.507Z,154.43
2023-10-20T02:27:49.430Z,145.57
2023-10-20T02:30:21.366Z,141.63
2023-10-20T02:32:53.334Z,143.93
2023-10-20T02:35:25.757Z,146.60
2023-10-20T02:37:57.531Z,147.27
2023-10-20T02:40:29.271Z,142.90
2023-10-20T02:43:01.955Z,138.23
2023-10-20T02:45:33.764Z,141.80
2023-10-20T02:48:06.094Z,142.33
2023-10-20T02:50:37.957Z,131.70
2023-10-20T02:53:09.895Z,133.33
2023-10-20T02:55:42.817Z,134.70
2023-10-20T02:58:14.785Z,141.37
2023-10-20T03:00:51.158Z,134.73
2023-10-20T03:03:23.131Z,150.77
2023-10-20T03:05:54.937Z,146.83
2023-10-20T03:08:26.732Z,151.60
2023-10-20T03:10:58.907Z,147.20
2023-10-20T03:13:30.663Z,161.97
2023-10-20T03:16:02.514Z,169.50
2023-10-20T03:18:34.451Z,175.57
2023-10-20T03:21:08.690Z,168.80
2023-10-20T03:23:44.800Z,173.33
2023-10-20T03:26:16.926Z,159.13
2023-10-20T03:28:48.961Z,151.53
2023-10-20T03:31:20.809Z,166.60
2023-10-20T03:33:53.795Z,146.67
2023-10-20T03:36:25.588Z,192.20
2023-10-20T03:38:57.899Z,159.50
2023-10-20T03:41:30.492Z,169.53
2023-10-20T03:44:02.352Z,171.63
2023-10-20T03:46:43.407Z,186.77
2023-10-20T03:49:16.829Z,200.23
2023-10-20T03:51:51.661Z,188.03
2023-10-20T03:54:25.775Z,176.57
2023-10-20T03:56:59.064Z,177.90
2023-10-20T03:59:31.722Z,191.83
2023-10-20T04:02:03.821Z,199.63
2023-10-20T04:04:35.870Z,211.90
2023-10-20T04:07:08.260Z,221.93
2023-10-20T04:09:40.170Z,211.67
2023-10-20T04:12:12.528Z,234.03
2023-10-20T04:14:44.315Z,214.80
2023-10-20T04:17:17.156Z,221.90
2023-10-20T04:19:50.564Z,195.33
2023-10-20T04:22:24.355Z,215.23
2023-10-20T04:24:56.108Z,212.63
2023-10-20T04:27:48.129Z,215.23
2023-10-20T04:30:38.946Z,221.93
2023-10-20T04:33:29.532Z,230.03
2023-10-20T04:36:19.875Z,221.43
2023-10-20T04:39:10.328Z,230.47
2023-10-20T04:42:02.158Z,239.67
2023-10-20T04:44:49.037Z,231.97
2023-10-20T04:47:26.768Z,262.47
2023-10-20T04:50:01.418Z,259.73
2023-10-20T04:52:52.266Z,275.57
2023-10-20T04:55:27.129Z,268.90
2023-10-20T04:58:17.524Z,258.13
2023-10-20T05:01:00.509Z,255.60
2023-10-20T05:03:46.126Z,261.40
2023-10-20T05:06:24.819Z,297.37
2023-10-20T05:08:57.391Z,265.27
2023-10-20T05:11:29.164Z,277.27
2023-10-20T05:14:00.982Z,284.93
2023-10-20T05:16:35.178Z,257.27
2023-10-20T05:19:07.112Z,315.03
2023-10-20T05:21:41.758Z,270.40
2023-10-20T05:24:13.594Z,278.87
2023-10-20T05:26:48.230Z,261.43
2023-10-20T05:29:20.076Z,262.60
2023-10-20T05:31:52.040Z,259.60
2023-10-20T05:34:23.895Z,269.30
2023-10-20T05:36:55.994Z,294.47
2023-10-20T05:39:27.744Z,278.03
2023-10-20T05:42:02.200Z,278.87
2023-10-20T05:44:34.889Z,307.20
2023-10-20T05:47:06.877Z,297.37
2023-10-20T05:49:38.683Z,244.40
2023-10-20T05:52:10.431Z,231.83
2023-10-20T05:54:43.208Z,247.13
2023-10-20T05:57:15.714Z,236.67
2023-10-20T05:59:47.503Z,246.77
2023-10-20T06:02:19.318Z,246.83
2023-10-20T06:04:51.934Z,239.33
2023-10-20T06:07:23.664Z,222.23
2023-10-20T06:09:55.653Z,240.73
2023-10-20T06:12:27.546Z,225.10
2023-10-20T06:14:59.354Z,229.73
2023-10-20T06:17:31.192Z,273.53
2023-10-20T06:20:07.798Z,284.03
2023-10-20T06:22:39.603Z,243.07
2023-10-20T06:25:13.443Z,258.87
2023-10-20T06:27:46.493Z,251.47
2023-10-20T06:30:24.215Z,326.57
2023-10-20T06:33:18.945Z,255.97
2023-10-20T06:35:54.329Z,222.80
2023-10-20T06:38:33.371Z,237.07
2023-10-20T06:41:05.261Z,231.87
2023-10-20T06:43:37.041Z,240.03
2023-10-20T06:46:08.912Z,270.87
2023-10-20T06:48:40.702Z,268.27
2023-10-20T06:51:12.440Z,250.13
2023-10-20T06:53:44.236Z,261.03
2023-10-20T06:56:19.006Z,260.43
2023-10-20T06:58:52.822Z,251.83
2023-10-20T07:01:25.043Z,257.87
2023-10-20T07:03:56.890Z,252.63
2023-10-20T07:06:29.246Z,283.77
2023-10-20T07:09:00.958Z,246.87
2023-10-20T07:11:33.485Z,231.30
2023-10-20T07:14:06.435Z,240.70
2023-10-20T07:16:38.367Z,228.83
2023-10-20T07:19:10.501Z,234.30
2023-10-20T07:21:42.270Z,221.40
2023-10-20T07:24:14.089Z,244.87
2023-10-20T07:26:46.474Z,265.27
2023-10-20T07:29:18.312Z,246.17
2023-10-20T07:31:50.177Z,273.30
2023-10-20T07:34:22.316Z,282.83
2023-10-20T07:36:54.111Z,283.30
2023-10-20T07:39:25.917Z,299.87
2023-10-20T07:41:57.676Z,284.33
2023-10-20T07:44:30.006Z,351.97
2023-10-20T07:47:01.789Z,285.40
2023-10-20T07:49:34.132Z,278.53
2023-10-20T07:52:05.882Z,308.80
2023-10-20T07:54:37.627Z,286.57
2023-10-20T07:57:10.388Z,231.73
2023-10-20T07:59:42.182Z,203.30
2023-10-20T08:02:14.204Z,146.43
2023-10-20T08:04:46.851Z,145.17
2023-10-20T08:07:19.355Z,110.33
2023-10-20T08:09:51.664Z,90.53
2023-10-20T08:12:23.508Z,99.53
2023-10-20T08:14:57.081Z,93.90
2023-10-20T08:17:28.877Z,88.37
2023-10-20T08:20:00.750Z,85.60
2023-10-20T08:22:32.488Z,80.80
2023-10-20T08:25:04.942Z,83.17
2023-10-20T08:27:36.741Z,86.10
2023-10-20T08:30:08.945Z,86.97
2023-10-20T08:33:06.685Z,86.77
2023-10-20T08:35:38.977Z,87.63
2023-10-20T08:38:11.077Z,94.23
2023-10-20T08:41:07.851Z,108.67
2023-10-20T08:43:34.816Z,104.77
2023-10-20T08:46:09.349Z,125.77
2023-10-20T08:48:42.312Z,129.80
2023-10-20T08:51:17.800Z,137.87
2023-10-20T08:53:49.997Z,136.53
2023-10-20T08:58:55.174Z,148.60
2023-10-20T09:01:27.151Z,158.40
2023-10-20T09:04:02.119Z,183.20
2023-10-20T09:06:34.000Z,113.47
2023-10-20T09:09:07.193Z,119.07
2023-10-20T09:11:41.779Z,124.90
2023-10-20T09:14:15.365Z,125.43
2023-10-20T09:16:48.217Z,162.40
2023-10-20T09:19:19.964Z,134.80
2023-10-20T09:21:53.681Z,143.17
2023-10-20T09:24:35.908Z,134.27
2023-10-20T09:27:08.756Z,136.63
2023-10-20T09:29:41.571Z,134.90
2023-10-20T09:32:13.558Z,141.77
2023-10-20T09:34:45.487Z,127.83
2023-10-20T09:37:19.921Z,128.70
2023-10-20T09:39:57.823Z,135.67
2023-10-20T09:45:10.389Z,115.60
2023-10-20T09:47:44.776Z,126.53
2023-10-20T09:50:19.450Z,115.47
2023-10-20T09:52:54.703Z,115.00
2023-10-20T09:55:27.388Z,108.70
2023-10-20T09:58:02.021Z,117.43
2023-10-20T10:00:36.062Z,113.27
2023-10-20T10:03:10.031Z,104.63
2023-10-20T10:05:41.980Z,111.77
2023-10-20T10:08:13.869Z,120.27
2023-10-20T10:10:45.645Z,108.83
2023-10-20T10:13:17.789Z,101.83
2023-10-20T10:15:50.389Z,101.57
2023-10-20T10:18:25.343Z,100.57
2023-10-20T10:21:05.142Z,105.33
2023-10-20T10:23:37.177Z,107.20
2023-10-20T10:26:14.966Z,104.97
2023-10-20T10:28:50.518Z,103.57
2023-10-20T10:31:33.003Z,105.00
2023-10-20T10:34:05.710Z,104.57
2023-10-20T10:36:48.518Z,113.47
2023-10-20T10:39:25.011Z,107.93
2023-10-20T10:42:07.127Z,110.57
2023-10-20T10:44:40.771Z,103.30
2023-10-20T10:47:24.082Z,101.03
2023-10-20T10:49:55.864Z,104.83
2023-10-20T10:52:27.604Z,99.70
2023-10-20T10:54:59.342Z,112.63
2023-10-20T10:57:32.213Z,97.93
2023-10-20T11:00:04.735Z,98.10
2023-10-20T11:02:36.845Z,105.80
2023-10-20T11:05:09.008Z,97.83
2023-10-20T11:07:41.586Z,98.30
2023-10-20T11:10:16.792Z,104.00
2023-10-20T11:12:51.653Z,108.13
2023-10-20T11:15:29.573Z,101.20
2023-10-20T11:18:03.007Z,120.93
2023-10-20T11:20:39.973Z,102.97
2023-10-20T11:23:13.771Z,108.00
2023-10-20T11:25:46.305Z,101.43
2023-10-20T11:28:18.061Z,107.70
2023-10-20T11:30:50.146Z,107.53
2023-10-20T11:33:22.508Z,105.13
2023-10-20T11:35:55.023Z,103.67
2023-10-20T11:38:28.745Z,104.80
2023-10-20T11:41:01.261Z,102.53
2023-10-20T11:43:33.011Z,105.70
2023-10-20T11:46:06.972Z,145.13
2023-10-20T11:48:38.753Z,195.30
2023-10-20T11:51:12.149Z,151.10
2023-10-20T11:53:45.529Z,168.63
2023-10-20T11:56:17.560Z,174.40
2023-10-20T11:58:49.320Z,184.87
2023-10-20T12:01:21.179Z,203.60
2023-10-20T12:03:53.156Z,206.40
2023-10-20T12:06:25.016Z,177.83
2023-10-20T12:08:56.827Z,186.70
2023-10-20T12:11:28.972Z,196.40
2023-10-20T12:14:00.904Z,204.67
2023-10-20T12:16:33.053Z,217.67
2023-10-20T12:19:07.341Z,213.20
2023-10-20T12:21:39.189Z,212.67
2023-10-20T12:24:10.979Z,223.90
2023-10-20T12:26:43.868Z,291.03
2023-10-20T12:29:20.572Z,224.73
2023-10-20T12:31:52.545Z,227.53
2023-10-20T12:34:24.433Z,208.20
2023-10-20T12:36:56.180Z,219.60
2023-10-20T12:39:29.412Z,171.43
2023-10-20T12:42:04.459Z,148.47
2023-10-20T12:44:37.446Z,141.00
2023-10-20T12:47:09.928Z,139.07
2023-10-20T12:49:41.656Z,139.70
2023-10-20T12:52:13.460Z,140.83
2023-10-20T12:54:45.284Z,143.23
2023-10-20T12:57:17.851Z,133.23
2023-10-20T12:59:49.775Z,117.57
2023-10-20T13:02:21.623Z,96.93
2023-10-20T13:04:53.391Z,96.57
2023-10-20T13:07:25.354Z,87.73
2023-10-20T13:09:57.116Z,94.77
2023-10-20T13:12:28.872Z,99.13
2023-10-20T13:15:00.708Z,99.80
2023-10-20T13:17:34.447Z,104.83
2023-10-20T13:20:10.059Z,124.20
2023-10-20T13:22:41.868Z,128.33
2023-10-20T13:25:15.514Z,130.97
2023-10-20T13:27:49.236Z,138.97
2023-10-20T13:30:21.142Z,137.07
2023-10-20T13:32:53.304Z,136.07
2023-10-20T13:35:25.266Z,137.63
2023-10-20T13:37:57.018Z,143.30
2023-10-20T13:40:29.173Z,147.47
2023-10-20T13:43:01.048Z,143.50
2023-10-20T13:45:32.916Z,143.80
2023-10-20T13:48:05.121Z,162.40
2023-10-20T13:50:40.500Z,157.87
2023-10-20T13:53:15.712Z,171.43
2023-10-20T13:55:47.853Z,187.03
2023-10-20T13:58:19.630Z,192.40
2023-10-20T14:00:52.504Z,199.13
2023-10-20T14:03:24.551Z,195.13
2023-10-20T14:05:56.785Z,180.03
2023-10-20T14:08:28.632Z,173.87
2023-10-20T14:11:02.123Z,171.57
2023-10-20T14:13:33.889Z,172.17
2023-10-20T14:16:05.967Z,170.83
2023-10-20T14:18:37.854Z,178.40
2023-10-20T14:21:09.980Z,193.63
2023-10-20T14:23:42.070Z,211.10
2023-10-20T14:26:13.818Z,226.17
2023-10-20T14:28:45.601Z,222.57
2023-10-20T14:31:17.392Z,227.10
2023-10-20T14:33:49.176Z,240.73
2023-10-20T14:36:20.966Z,243.40
2023-10-20T14:38:52.800Z,133.70
2023-10-20T14:41:24.595Z,58.73
2023-10-20T14:43:56.374Z,55.20
2023-10-20T14:46:28.189Z,47.50
2023-10-20T14:49:00.023Z,47.90
2023-10-20T14:51:31.828Z,48.60
2023-10-20T14:54:03.916Z,50.03
2023-10-20T14:56:36.263Z,77.37
2023-10-20T14:59:08.039Z,75.23
2023-10-20T15:01:39.851Z,78.67
2023-10-20T15:04:28.568Z,76.70
2023-10-20T15:07:01.923Z,83.73
2023-10-20T15:09:34.137Z,92.47
2023-10-20T15:12:06.358Z,100.17
2023-10-20T15:14:38.462Z,114.50
2023-10-20T15:17:10.361Z,113.70
2023-10-20T15:19:42.135Z,127.90
2023-10-20T15:22:13.873Z,122.30
2023-10-20T15:24:45.660Z,140.17
2023-10-20T15:27:19.632Z,189.33
2023-10-20T15:29:51.779Z,241.10
2023-10-20T15:32:23.601Z,286.17
2023-10-20T15:34:55.542Z,338.87
2023-10-20T15:37:27.321Z,351.13
2023-10-20T15:40:07.823Z,362.03
2023-10-20T15:42:47.532Z,362.67
2023-10-20T15:45:20.314Z,372.60
2023-10-20T15:47:52.320Z,367.10
2023-10-20T15:50:24.251Z,358.90
2023-10-20T15:52:56.039Z,342.00
2023-10-20T15:55:27.938Z,348.87
2023-10-20T15:57:59.674Z,355.47
2023-10-20T16:00:35.045Z,341.03
2023-10-20T16:03:06.981Z,358.23
2023-10-20T16:05:38.902Z,348.47
2023-10-20T16:08:10.670Z,157.63
2023-10-20T16:10:42.518Z,172.50
2023-10-20T16:13:14.289Z,176.77
2023-10-20T16:15:46.080Z,168.03
2023-10-20T16:18:18.142Z,162.07
2023-10-20T16:20:50.449Z,153.20
2023-10-20T16:23:22.913Z,151.80
2023-10-20T16:25:54.894Z,152.80
2023-10-20T16:28:26.696Z,159.03
2023-10-20T16:31:01.348Z,148.67
2023-10-20T16:33:36.422Z,121.67
2023-10-20T16:36:08.395Z,137.47
2023-10-20T16:38:40.586Z,138.83
2023-10-20T16:41:12.556Z,123.67
2023-10-20T16:43:44.402Z,125.13
2023-10-20T16:46:16.209Z,135.17
2023-10-20T16:48:49.700Z,125.67
2023-10-20T16:51:21.851Z,126.73
2023-10-20T16:53:53.769Z,144.00
2023-10-20T16:56:25.716Z,133.57
2023-10-20T16:58:57.823Z,123.87
2023-10-20T17:01:31.866Z,120.13
2023-10-20T17:04:04.480Z,123.93
2023-10-20T17:06:36.375Z,119.37
2023-10-20T17:09:08.738Z,116.93
2023-10-20T17:11:40.606Z,114.47
2023-10-20T17:14:12.361Z,112.13
2023-10-20T17:16:44.574Z,111.70
2023-10-20T17:19:16.355Z,113.40
2023-10-20T17:21:48.122Z,103.17
2023-10-20T17:24:19.858Z,111.10
2023-10-20T17:26:51.610Z,109.67
2023-10-20T17:29:23.474Z,108.67
2023-10-20T17:31:55.377Z,109.50
2023-10-20T17:34:27.379Z,114.67
2023-10-20T17:36:59.154Z,125.97
2023-10-20T17:39:31.190Z,130.70
2023-10-20T17:42:03.925Z,132.17
2023-10-20T17:44:35.736Z,129.10
2023-10-20T17:47:07.518Z,142.13
2023-10-20T17:49:39.502Z,130.05
2023-10-20T17:52:11.427Z,133.60
2023-10-20T17:54:44.520Z,135.00
2023-10-20T17:57:16.471Z,131.83
2023-10-20T17:59:48.247Z,135.17
2023-10-20T18:02:20.056Z,139.43
2023-10-20T18:04:52.798Z,135.73
2023-10-20T18:07:24.572Z,133.93
2023-10-20T18:09:56.317Z,128.10
2023-10-20T18:12:28.137Z,137.03
2023-10-20T18:15:00.485Z,141.90
2023-10-20T18:17:32.336Z,134.33
2023-10-20T18:20:05.880Z,148.77
2023-10-20T18:22:37.741Z,138.97
2023-10-20T18:25:10.639Z,134.37
2023-10-20T18:27:45.236Z,144.50
2023-10-20T18:30:17.470Z,325.87
2023-10-20T18:32:49.374Z,328.00
2023-10-20T18:35:21.148Z,336.73
2023-10-20T18:37:52.931Z,323.83
2023-10-20T18:40:26.046Z,319.83
2023-10-20T18:43:01.863Z,306.97
2023-10-20T18:45:33.932Z,307.30
2023-10-20T18:48:06.776Z,309.37
2023-10-20T18:50:39.564Z,304.80
2023-10-20T18:53:12.178Z,318.10
2023-10-20T18:55:44.152Z,283.07
2023-10-20T18:58:15.964Z,278.23
2023-10-20T19:00:47.755Z,257.50
2023-10-20T19:03:22.810Z,246.37
2023-10-20T19:05:54.779Z,242.43
2023-10-20T19:08:26.642Z,244.63
2023-10-20T19:11:05.466Z,256.63
2023-10-20T19:13:37.895Z,245.47
2023-10-20T19:16:09.842Z,237.40
2023-10-20T19:18:41.765Z,231.90
2023-10-20T19:21:13.650Z,222.73
2023-10-20T19:23:45.458Z,220.97
2023-10-20T19:26:17.222Z,212.33
2023-10-20T19:28:49.160Z,202.47
2023-10-20T19:31:20.958Z,199.67
2023-10-20T19:33:52.931Z,181.47
2023-10-20T19:36:24.868Z,172.57
2023-10-20T19:38:56.700Z,159.53
2023-10-20T19:41:28.716Z,164.30
2023-10-20T19:44:00.485Z,147.53
2023-10-20T19:46:32.551Z,157.07
2023-10-20T19:49:04.665Z,149.03
2023-10-20T19:51:36.418Z,147.50
2023-10-20T19:54:09.405Z,148.57
2023-10-20T19:56:42.140Z,151.00
2023-10-20T19:59:13.922Z,145.23
2023-10-20T20:01:46.021Z,147.87
2023-10-20T20:04:22.889Z,138.60
2023-10-20T20:06:56.339Z,142.50
2023-10-20T20:09:29.472Z,143.80
2023-10-20T20:12:01.258Z,151.40
2023-10-20T20:14:33.077Z,154.67
2023-10-20T20:17:04.838Z,143.47
2023-10-20T20:19:36.723Z,136.67
2023-10-20T20:22:08.643Z,140.17
2023-10-20T20:24:40.407Z,143.20
2023-10-20T20:27:12.553Z,141.17
2023-10-20T20:29:44.431Z,146.37
2023-10-20T20:32:16.197Z,141.90
2023-10-20T20:34:48.061Z,143.77
2023-10-20T20:37:20.284Z,145.67
2023-10-20T20:39:52.092Z,162.30
2023-10-20T20:42:24.463Z,159.90
2023-10-20T20:44:56.278Z,159.43
2023-10-20T20:47:28.165Z,159.30
2023-10-20T20:50:00.377Z,162.30
2023-10-20T20:52:32.922Z,173.43
2023-10-20T20:55:06.087Z,164.77
2023-10-20T20:57:37.917Z,165.77
2023-10-20T21:00:11.179Z,170.13
2023-10-20T21:02:43.351Z,165.17
2023-10-20T21:05:15.333Z,180.70
2023-10-20T21:07:47.073Z,181.67
2023-10-20T21:10:19.031Z,183.43
2023-10-20T21:12:50.918Z,190.67
2023-10-20T21:15:22.771Z,186.40
2023-10-20T21:17:54.841Z,198.27
2023-10-20T21:20:26.644Z,203.63
2023-10-20T21:22:58.372Z,205.20
2023-10-20T21:25:30.124Z,203.07
2023-10-20T21:28:02.978Z,199.23
2023-10-20T21:30:37.310Z,195.40
2023-10-20T21:33:09.176Z,196.47
2023-10-20T21:35:44.584Z,207.63
2023-10-20T21:38:16.997Z,199.20
2023-10-20T21:40:48.836Z,203.13
2023-10-20T21:43:20.598Z,210.13
2023-10-20T21:45:57.193Z,188.90
2023-10-20T21:48:29.123Z,197.70
2023-10-20T21:51:03.231Z,179.03
2023-10-20T21:53:35.844Z,182.40
2023-10-20T21:56:09.968Z,181.10
2023-10-20T21:58:42.493Z,204.43
2023-10-20T22:01:14.844Z,112.80
2023-10-20T22:03:47.103Z,101.80
2023-10-20T22:06:19.161Z,98.40
2023-10-20T22:08:52.636Z,96.70
2023-10-20T22:11:24.527Z,99.87
2023-10-20T22:13:56.321Z,99.27
2023-10-20T22:16:28.161Z,97.23
2023-10-20T22:19:00.038Z,102.53
2023-10-20T22:21:32.302Z,103.60
2023-10-20T22:24:04.832Z,105.00
2023-10-20T22:26:36.657Z,96.77
2023-10-20T22:29:08.521Z,105.33
2023-10-20T22:31:40.371Z,107.07
2023-10-20T22:34:12.200Z,100.30
2023-10-20T22:36:44.029Z,102.30
2023-10-20T22:39:16.101Z,108.23
2023-10-20T22:41:47.988Z,113.37
2023-10-20T22:44:19.873Z,111.30
2023-10-20T22:46:51.635Z,104.10
2023-10-20T22:49:23.410Z,112.70
2023-10-20T22:51:55.190Z,104.80
2023-10-20T22:54:26.947Z,110.57
2023-10-20T22:56:58.740Z,115.67
2023-10-20T22:59:30.577Z,109.40
2023-10-20T23:02:03.194Z,109.23
2023-10-20T23:04:35.263Z,110.37
2023-10-20T23:07:07.119Z,110.03
2023-10-20T23:09:39.000Z,94.73
2023-10-20T23:12:11.044Z,88.97
2023-10-20T23:14:42.981Z,91.63
2023-10-20T23:17:14.827Z,92.60
2023-10-20T23:19:46.601Z,93.00
2023-10-20T23:22:18.762Z,95.83
2023-10-20T23:24:50.561Z,86.60
2023-10-20T23:27:22.379Z,88.70
2023-10-20T23:29:54.169Z,89.33
2023-10-20T23:32:26.130Z,84.93
2023-10-20T23:34:57.909Z,91.23
2023-10-20T23:37:29.678Z,79.23
2023-10-20T23:40:01.540Z,84.07
2023-10-20T23:42:36.720Z,80.20
2023-10-20T23:45:08.923Z,78.50
2023-10-20T23:47:40.801Z,81.13
2023-10-20T23:50:12.599Z,87.07
2023-10-20T23:52:45.276Z,78.83
2023-10-20T23:55:17.119Z,76.37
2023-10-20T23:57:48.866Z,79.37
